Terminal Aerodrome Forecast
Issued by NWS

Home | Current Version | Previous Version | Text Only | Print | Product List | Glossary On
Versions: 1 2 3 4 5 6 7 8 9 10 11 12 13 14 15 16 17 18 19 20 21 22 23
000
FTUS43 KPAH 171500 AAB
TAFCGI
TAF AMD
KCGI 171508Z 1715/1812 28008KT P6SM SCT020 BKN040
     FM171800 29006KT P6SM BKN035
     FM180000 24004KT P6SM BKN040
     FM180600 VRB02KT 3SM BR SCT002 BKN010=

USA.gov is the U.S. government's official web portal to all federal, state and local government web resources and services.